Time;durP1;ratioP1;P1;durP2;ratioP2;P2;SDS_P1;SDS_P2;PMS_P1;PMS_P2;Temp;Humidity;BMP_temperature;BMP_pressure;BME280_temperature;BME280_humidity;BME280_pressure;Samples;Min_cycle;Max_cycle;Signal;HPM_P1;HPM_P2
2023/09/08 00:02:01;;;;;;;12.93;8.25;;;;;;;21.11;100.00;101663.75;5017808;28;20128;-67
2023/09/08 00:04:27;;;;;;;15.02;8.27;;;;;;;21.05;100.00;101661.84;5025820;28;20057;-67
2023/09/08 00:06:54;;;;;;;11.07;7.93;;;;;;;20.96;100.00;101655.06;5025091;28;20130;-67
2023/09/08 00:09:20;;;;;;;10.30;8.05;;;;;;;20.87;100.00;101659.69;5018052;28;20057;-67
2023/09/08 00:11:47;;;;;;;14.13;8.45;;;;;;;20.80;100.00;101658.84;5021176;28;20080;-67
2023/09/08 00:14:13;;;;;;;12.32;9.20;;;;;;;20.70;100.00;101656.50;5014104;28;20054;-67
2023/09/08 00:16:42;;;;;;;10.85;9.18;;;;;;;20.61;100.00;101660.31;5019829;28;20072;-67
2023/09/08 00:19:11;;;;;;;10.45;8.63;;;;;;;20.56;100.00;101660.84;5016498;28;20061;-67
2023/09/08 00:21:37;;;;;;;11.65;9.05;;;;;;;20.57;100.00;101667.03;5023739;28;20136;-67
2023/09/08 00:24:04;;;;;;;10.88;9.48;;;;;;;20.58;100.00;101663.31;5008021;28;20064;-68
2023/09/08 00:26:32;;;;;;;9.68;8.55;;;;;;;20.60;100.00;101661.31;5002397;28;20061;-67
2023/09/08 00:28:58;;;;;;;13.35;9.20;;;;;;;20.57;100.00;101670.50;5006655;28;20058;-68
2023/09/08 00:31:25;;;;;;;14.25;9.63;;;;;;;20.48;100.00;101660.97;5012503;28;20438;-67
2023/09/08 00:33:52;;;;;;;11.90;9.40;;;;;;;20.37;100.00;101667.66;5024827;28;20053;-67
2023/09/08 00:36:19;;;;;;;11.02;8.52;;;;;;;20.32;100.00;101659.41;5019509;28;20049;-69
2023/09/08 00:38:45;;;;;;;10.73;8.38;;;;;;;20.27;100.00;101667.16;5025730;28;20129;-68
2023/09/08 00:41:12;;;;;;;12.93;8.10;;;;;;;20.24;100.00;101663.03;5018640;28;20137;-67
2023/09/08 00:43:38;;;;;;;13.60;8.35;;;;;;;20.25;100.00;101663.88;5019881;28;20084;-67
2023/09/08 00:46:06;;;;;;;12.40;8.77;;;;;;;20.26;100.00;101660.19;5031129;28;20045;-67
2023/09/08 00:48:34;;;;;;;13.43;9.68;;;;;;;20.25;100.00;101664.69;5014397;28;20107;-67
2023/09/08 00:51:02;;;;;;;12.10;9.25;;;;;;;20.23;100.00;101669.38;5030577;28;20391;-67
2023/09/08 00:53:28;;;;;;;13.00;9.30;;;;;;;20.21;100.00;101650.09;5013694;28;20053;-67
2023/09/08 00:55:56;;;;;;;11.00;9.27;;;;;;;20.24;100.00;101665.69;5018585;28;20060;-67
2023/09/08 00:58:22;;;;;;;13.43;9.40;;;;;;;20.20;100.00;101650.28;5032233;28;20060;-67
2023/09/08 01:00:49;;;;;;;13.27;10.02;;;;;;;20.20;100.00;101656.44;5024768;28;20481;-67
2023/09/08 01:03:15;;;;;;;12.88;10.40;;;;;;;20.17;100.00;101661.31;5023115;28;20486;-67
2023/09/08 01:05:43;;;;;;;13.77;10.20;;;;;;;20.14;100.00;101658.00;5015527;28;20501;-67
2023/09/08 01:08:09;;;;;;;11.73;9.97;;;;;;;20.11;100.00;101655.75;5017577;28;20057;-68
2023/09/08 01:10:37;;;;;;;12.50;9.98;;;;;;;20.05;100.00;101655.66;5012641;28;20050;-67
2023/09/08 01:13:03;;;;;;;10.83;9.73;;;;;;;20.01;100.00;101657.84;5020979;28;20049;-67
2023/09/08 01:15:30;;;;;;;10.98;9.32;;;;;;;19.97;100.00;101659.25;5025221;28;20372;-67
2023/09/08 01:17:56;;;;;;;15.10;10.27;;;;;;;19.90;100.00;101659.19;5008363;28;20045;-68
2023/09/08 01:20:27;;;;;;;11.00;9.18;;;;;;;19.84;100.00;101656.47;5024071;28;20045;-67
2023/09/08 01:23:04;;;;;;;12.50;9.55;;;;;;;19.74;100.00;101654.91;5008011;28;20424;-68
2023/09/08 01:25:32;;;;;;;12.77;10.07;;;;;;;19.69;100.00;101653.78;5023436;28;20188;-68
2023/09/08 01:28:01;;;;;;;14.02;10.52;;;;;;;19.69;100.00;101653.78;5018039;28;20050;-68
2023/09/08 01:30:32;;;;;;;14.88;9.65;;;;;;;19.69;100.00;101653.78;5022252;28;20057;-67
2023/09/08 01:33:00;;;;;;;12.27;9.88;;;;;;;19.70;100.00;101648.28;5023767;28;20731;-68
2023/09/08 01:35:27;;;;;;;10.82;9.73;;;;;;;19.72;100.00;101646.28;5013397;28;20133;-68
2023/09/08 01:37:53;;;;;;;13.00;9.95;;;;;;;19.72;100.00;101646.28;5019552;28;20049;-68
2023/09/08 01:40:20;;;;;;;11.38;9.23;;;;;;;19.73;100.00;101650.59;5020518;28;20056;-68
2023/09/08 01:42:47;;;;;;;11.80;9.57;;;;;;;19.74;100.00;101660.25;5028800;28;20061;-68
2023/09/08 01:45:14;;;;;;;11.98;9.50;;;;;;;19.73;100.00;101652.44;5021434;28;20056;-68
2023/09/08 01:47:40;;;;;;;11.25;9.40;;;;;;;19.69;100.00;101653.78;5019610;28;20392;-68
2023/09/08 01:50:07;;;;;;;10.25;8.70;;;;;;;19.64;100.00;101646.38;5027816;28;20048;-68
2023/09/08 01:52:33;;;;;;;11.60;9.43;;;;;;;19.62;100.00;101650.22;5007733;28;20059;-67
2023/09/08 01:55:00;;;;;;;12.60;9.07;;;;;;;19.59;100.00;101643.44;5029049;28;20049;-68
2023/09/08 01:57:27;;;;;;;10.43;9.32;;;;;;;19.59;100.00;101639.97;5017238;28;20053;-68
2023/09/08 01:59:53;;;;;;;10.55;8.88;;;;;;;19.56;100.00;101646.47;5023375;28;20506;-68
2023/09/08 02:02:19;;;;;;;11.85;9.48;;;;;;;19.56;100.00;101641.13;5023476;28;20116;-68
2023/09/08 02:04:48;;;;;;;11.20;8.02;;;;;;;19.54;100.00;101640.50;5011487;28;20049;-67
2023/09/08 02:07:14;;;;;;;12.45;9.07;;;;;;;19.51;100.00;101638.22;5018102;28;20065;-67
2023/09/08 02:09:42;;;;;;;12.45;9.68;;;;;;;19.44;100.00;101638.13;5015485;28;20084;-68
2023/09/08 02:12:08;;;;;;;12.97;9.60;;;;;;;19.40;100.00;101642.16;5025279;28;20698;-68
2023/09/08 02:14:35;;;;;;;11.63;10.43;;;;;;;19.36;100.00;101644.38;5019414;28;20352;-68
2023/09/08 02:17:02;;;;;;;13.82;9.93;;;;;;;19.34;100.00;101641.06;5023404;28;20127;-69
2023/09/08 02:19:28;;;;;;;13.45;8.80;;;;;;;19.34;100.00;101640.25;5025777;28;20471;-68
2023/09/08 02:21:55;;;;;;;13.90;8.43;;;;;;;19.34;100.00;101638.41;5020342;28;20053;-68
2023/09/08 02:24:21;;;;;;;18.85;9.45;;;;;;;19.29;100.00;101640.00;5024924;28;20136;-69
2023/09/08 02:26:49;;;;;;;10.23;8.57;;;;;;;19.26;100.00;101640.34;5015741;28;20422;-68
2023/09/08 02:29:16;;;;;;;10.90;9.35;;;;;;;19.19;100.00;101639.44;5013144;28;20049;-68
2023/09/08 02:31:44;;;;;;;10.50;9.30;;;;;;;19.14;100.00;101638.13;5022750;28;20089;-68
2023/09/08 02:34:12;;;;;;;11.13;9.50;;;;;;;19.06;100.00;101640.06;5018340;28;20136;-68
2023/09/08 02:36:39;;;;;;;11.90;9.52;;;;;;;19.02;100.00;101628.97;5022763;28;20049;-68
2023/09/08 02:39:05;;;;;;;11.95;9.73;;;;;;;19.02;100.00;101626.31;5011733;28;20135;-68
2023/09/08 02:41:32;;;;;;;14.60;9.13;;;;;;;19.06;100.00;101635.56;5018314;28;20516;-68
2023/09/08 02:43:58;;;;;;;10.63;8.88;;;;;;;19.08;100.00;101630.09;5015522;28;20566;-67
2023/09/08 02:46:25;;;;;;;10.77;9.30;;;;;;;19.11;100.00;101635.88;5022874;28;20685;-68
2023/09/08 02:48:52;;;;;;;13.65;11.25;;;;;;;19.11;100.00;101630.53;5024628;28;20045;-68
2023/09/08 02:51:19;;;;;;;12.07;10.00;;;;;;;19.09;100.00;101621.94;5030059;28;20674;-68
2023/09/08 02:53:45;;;;;;;12.50;9.80;;;;;;;19.08;100.00;101622.91;5032133;28;20282;-68
2023/09/08 02:56:12;;;;;;;13.23;10.63;;;;;;;19.08;100.00;101635.41;5004117;28;20041;-68
2023/09/08 02:58:38;;;;;;;11.90;8.82;;;;;;;19.09;100.00;101635.22;5032590;28;20129;-68
2023/09/08 03:01:15;;;;;;;13.52;10.63;;;;;;;19.08;100.00;101632.75;5014427;28;20050;-68
2023/09/08 03:03:42;;;;;;;13.18;10.25;;;;;;;19.04;100.00;101637.59;5022816;28;20594;-68
2023/09/08 03:06:11;;;;;;;12.32;9.15;;;;;;;18.96;100.00;101633.19;5020263;28;20489;-68
2023/09/08 03:08:37;;;;;;;13.27;9.55;;;;;;;18.94;100.00;101640.53;5022073;28;20053;-68
2023/09/08 03:11:07;;;;;;;13.25;9.32;;;;;;;18.87;100.00;101641.41;5021938;28;20588;-68
2023/09/08 03:13:34;;;;;;;14.45;10.40;;;;;;;18.74;100.00;101639.38;5020393;28;20103;-68
2023/09/08 03:16:05;;;;;;;12.93;10.10;;;;;;;18.74;100.00;101637.53;5029320;28;20115;-68
2023/09/08 03:18:33;;;;;;;13.77;10.75;;;;;;;18.71;100.00;101629.91;5012124;28;20132;-68
2023/09/08 03:21:08;;;;;;;;;;;;;;;18.73;100.00;101635.03;5011274;28;20434;-68
2023/09/08 03:23:40;;;;;;;12.02;9.85;;;;;;;18.76;100.00;101632.84;5022548;28;19925;-68
2023/09/08 03:26:07;;;;;;;13.23;10.68;;;;;;;18.70;100.00;101635.38;5018806;28;20053;-68
2023/09/08 03:28:34;;;;;;;14.60;10.32;;;;;;;18.68;100.00;101632.94;5011065;28;20697;-68
2023/09/08 03:31:02;;;;;;;14.05;10.95;;;;;;;18.66;100.00;101629.63;5015042;28;20052;-68
2023/09/08 03:33:29;;;;;;;14.02;11.07;;;;;;;18.64;100.00;101630.81;5013328;28;20050;-68
2023/09/08 03:35:56;;;;;;;13.73;10.98;;;;;;;18.62;100.00;101624.84;5007106;28;20494;-68
2023/09/08 03:38:22;;;;;;;14.85;11.15;;;;;;;18.61;100.00;101628.53;5021001;28;20050;-68
2023/09/08 03:40:49;;;;;;;12.68;10.55;;;;;;;18.63;100.00;101627.31;5012229;28;20439;-67
2023/09/08 03:43:16;;;;;;;13.75;10.43;;;;;;;18.62;100.00;101630.16;5016257;28;20075;-68
2023/09/08 03:45:42;;;;;;;15.00;10.55;;;;;;;18.64;100.00;101628.16;5022263;28;20080;-68
2023/09/08 03:48:09;;;;;;;12.95;10.18;;;;;;;18.66;100.00;101626.13;5010699;28;20430;-68
2023/09/08 03:50:36;;;;;;;12.60;10.80;;;;;;;18.66;100.00;101629.63;5029410;28;20073;-67
2023/09/08 03:53:02;;;;;;;15.18;10.98;;;;;;;18.62;100.00;101627.50;5018030;28;20466;-68
2023/09/08 03:55:29;;;;;;;13.73;11.05;;;;;;;18.62;100.00;101624.84;5013473;28;20053;-68
2023/09/08 03:57:56;;;;;;;11.82;10.35;;;;;;;18.61;100.00;101623.22;5033207;28;20545;-68
2023/09/08 04:00:22;;;;;;;12.00;9.90;;;;;;;18.58;100.00;101629.69;5024292;28;20588;-68
2023/09/08 04:02:49;;;;;;;12.35;10.73;;;;;;;18.54;100.00;101617.78;5023879;28;20064;-68
2023/09/08 04:05:16;;;;;;;13.85;10.95;;;;;;;18.49;100.00;101628.94;5029636;28;20053;-68
2023/09/08 04:07:46;;;;;;;14.43;10.73;;;;;;;18.48;100.00;101624.63;5039195;28;20056;-68
2023/09/08 04:10:13;;;;;;;13.38;10.82;;;;;;;18.43;100.00;101626.19;5030659;28;20053;-68
2023/09/08 04:12:40;;;;;;;14.48;10.68;;;;;;;18.38;100.00;101639.97;5018389;28;20154;-68
2023/09/08 04:15:08;;;;;;;21.08;11.75;;;;;;;18.38;100.00;101632.03;5034239;28;20482;-68
2023/09/08 04:17:36;;;;;;;14.98;11.43;;;;;;;18.40;100.00;101632.66;5018370;28;20140;-68
2023/09/08 04:20:06;;;;;;;14.43;10.47;;;;;;;18.38;100.00;101616.94;5033677;28;20060;-68
2023/09/08 04:22:33;;;;;;;15.00;11.20;;;;;;;18.40;100.00;101622.03;5026550;28;20401;-68
2023/09/08 04:25:00;;;;;;;13.50;11.13;;;;;;;18.42;100.00;101621.88;5037449;28;20089;-67
2023/09/08 04:27:27;;;;;;;14.75;10.75;;;;;;;18.40;100.00;101615.91;5011794;28;20583;-68
2023/09/08 04:29:53;;;;;;;13.60;10.35;;;;;;;18.40;100.00;101618.56;5028200;28;20777;-68
2023/09/08 04:32:20;;;;;;;13.30;11.18;;;;;;;18.37;100.00;101617.91;5021287;28;20054;-68
2023/09/08 04:34:46;;;;;;;15.45;12.02;;;;;;;18.34;100.00;101612.94;5019034;28;20134;-68
2023/09/08 04:37:14;;;;;;;14.18;12.25;;;;;;;18.37;100.00;101630.38;5026265;28;20056;-68
2023/09/08 04:39:40;;;;;;;12.57;10.93;;;;;;;18.35;100.00;101627.06;5019375;28;20053;-68
2023/09/08 04:42:07;;;;;;;12.75;11.27;;;;;;;18.33;100.00;101627.25;5024653;28;20514;-68
2023/09/08 04:44:33;;;;;;;13.98;11.32;;;;;;;18.34;100.00;101628.88;5027849;28;20060;-68
2023/09/08 04:47:00;;;;;;;12.00;9.93;;;;;;;18.35;100.00;101624.41;5017578;28;20132;-68
2023/09/08 04:49:28;;;;;;;13.27;11.35;;;;;;;18.34;100.00;101625.41;5030448;28;20056;-68
2023/09/08 04:51:55;;;;;;;16.40;11.40;;;;;;;18.35;100.00;101627.06;5035705;28;20075;-68
2023/09/08 04:54:24;;;;;;;13.88;11.70;;;;;;;18.34;100.00;101625.41;5028953;28;20152;-68
2023/09/08 04:56:50;;;;;;;15.40;11.98;;;;;;;18.35;100.00;101627.06;5012449;28;20681;-68
2023/09/08 04:59:17;;;;;;;14.00;11.45;;;;;;;18.31;100.00;101625.78;5008999;28;20073;-68
2023/09/08 05:01:43;;;;;;;15.82;12.43;;;;;;;18.29;100.00;101627.78;5024337;28;20127;-68
2023/09/08 05:04:11;;;;;;;13.38;11.98;;;;;;;18.29;100.00;101628.63;5017811;28;20133;-68
2023/09/08 05:06:37;;;;;;;15.13;12.87;;;;;;;18.28;100.00;101626.13;5025015;28;20123;-68
2023/09/08 05:09:04;;;;;;;16.35;12.63;;;;;;;18.28;100.00;101626.94;5015490;28;20725;-68
2023/09/08 05:11:30;;;;;;;17.52;13.02;;;;;;;18.29;100.00;101627.78;5022375;28;20046;-68
2023/09/08 05:13:57;;;;;;;16.70;12.23;;;;;;;18.30;100.00;101619.63;5015097;28;20053;-68
2023/09/08 05:16:36;;;;;;;16.10;12.85;;;;;;;18.27;100.00;101621.81;5036582;28;20498;-68
2023/09/08 05:19:04;;;;;;;18.25;12.88;;;;;;;18.26;100.00;101621.00;5023550;28;20057;-68
2023/09/08 05:21:31;;;;;;;17.77;12.93;;;;;;;18.25;100.00;101623.81;5018110;28;20053;-68
2023/09/08 05:23:58;;;;;;;17.83;12.95;;;;;;;18.23;100.00;101621.34;5024663;28;20365;-67
2023/09/08 05:26:24;;;;;;;15.95;13.13;;;;;;;18.19;100.00;101614.75;5010846;28;20142;-68
2023/09/08 05:28:51;;;;;;;17.58;12.93;;;;;;;18.22;100.00;101634.81;5030097;28;20057;-68
2023/09/08 05:31:17;;;;;;;15.43;12.52;;;;;;;18.22;100.00;101626.84;5027220;28;20053;-67
2023/09/08 05:33:44;;;;;;;17.63;13.63;;;;;;;18.21;100.00;101626.03;5025334;28;20469;-68
2023/09/08 05:36:10;;;;;;;18.60;13.65;;;;;;;18.22;100.00;101626.84;5031239;28;20053;-68
2023/09/08 05:38:41;;;;;;;17.27;12.93;;;;;;;18.22;100.00;101625.00;5020053;28;20502;-68
2023/09/08 05:41:07;;;;;;;17.15;12.82;;;;;;;18.23;100.00;101631.97;5016934;28;20132;-68
2023/09/08 05:43:33;;;;;;;16.98;12.98;;;;;;;18.23;100.00;101631.97;5012242;28;20104;-68
2023/09/08 05:46:00;;;;;;;15.80;12.95;;;;;;;18.20;100.00;101627.00;5014283;28;20892;-68
2023/09/08 05:48:27;;;;;;;23.52;12.80;;;;;;;18.26;100.00;101634.25;5023251;28;20049;-68
2023/09/08 05:50:53;;;;;;;16.83;12.60;;;;;;;18.30;100.00;101638.22;5017644;28;20114;-69
2023/09/08 05:53:20;;;;;;;16.60;12.57;;;;;;;18.31;100.00;101637.22;5027526;28;20516;-69
2023/09/08 05:55:47;;;;;;;21.98;13.07;;;;;;;18.35;100.00;101637.69;5014571;28;20063;-68
2023/09/08 05:58:13;;;;;;;18.48;12.88;;;;;;;18.37;100.00;101636.50;5024859;28;20088;-68
2023/09/08 06:00:40;;;;;;;18.33;13.13;;;;;;;18.38;100.00;101640.84;5029954;28;20479;-68
2023/09/08 06:03:07;;;;;;;18.60;13.70;;;;;;;18.39;100.00;101641.66;5016875;28;20053;-68
2023/09/08 06:05:34;;;;;;;17.58;12.32;;;;;;;18.44;100.00;101641.94;5019275;28;20730;-68
2023/09/08 06:08:01;;;;;;;20.40;14.05;;;;;;;18.48;100.00;101642.41;5022599;28;20051;-68
2023/09/08 06:10:33;;;;;;;17.65;14.43;;;;;;;18.50;100.00;101637.72;5023392;28;20049;-68
2023/09/08 06:12:59;;;;;;;19.42;14.40;;;;;;;18.52;100.00;101641.88;5016893;28;20045;-68
2023/09/08 06:15:26;;;;;;;18.65;14.23;;;;;;;18.51;100.00;101636.75;5023895;28;20063;-69
2023/09/08 06:17:52;;;;;;;18.38;14.38;;;;;;;18.56;100.00;101637.84;5012204;28;20050;-68
2023/09/08 06:20:19;;;;;;;18.30;14.75;;;;;;;18.60;100.00;101648.13;5019812;28;20045;-67
2023/09/08 06:22:45;;;;;;;19.15;14.10;;;;;;;18.62;100.00;101640.78;5026686;28;20054;-68
2023/09/08 06:25:12;;;;;;;21.63;14.60;;;;;;;18.66;100.00;101642.06;5023956;28;20056;-67
2023/09/08 06:27:39;;;;;;;21.13;15.13;;;;;;;18.71;100.00;101642.38;5023829;28;20075;-68
2023/09/08 06:30:06;;;;;;;16.58;14.02;;;;;;;18.76;100.00;101648.00;5012571;28;20099;-66
2023/09/08 06:32:33;;;;;;;15.80;12.32;;;;;;;18.77;100.00;101645.13;5024204;28;20472;-67
2023/09/08 06:34:59;;;;;;;19.10;14.40;;;;;;;18.81;100.00;101642.97;5021493;28;20125;-68
2023/09/08 06:37:26;;;;;;;20.52;15.27;;;;;;;18.85;100.00;101640.78;5031788;28;20053;-67
2023/09/08 06:39:54;;;;;;;18.83;14.68;;;;;;;18.90;100.00;101647.22;5023058;28;20438;-67
2023/09/08 06:42:21;;;;;;;18.00;14.02;;;;;;;18.94;100.00;101647.69;5028939;28;20055;-68
2023/09/08 06:44:47;;;;;;;22.52;14.38;;;;;;;18.98;100.00;101650.81;5026343;28;20067;-68
2023/09/08 06:47:13;;;;;;;16.88;14.90;;;;;;;19.01;100.00;101648.56;5013657;28;20137;-68
2023/09/08 06:49:41;;;;;;;19.00;15.00;;;;;;;19.05;100.00;101647.25;5023175;28;20108;-67
2023/09/08 06:52:07;;;;;;;18.90;15.03;;;;;;;19.10;100.00;101655.47;5017776;28;20507;-69
2023/09/08 06:54:34;;;;;;;18.50;15.05;;;;;;;19.16;100.00;101649.41;5007081;28;20081;-68
2023/09/08 06:57:00;;;;;;;20.88;16.10;;;;;;;19.19;100.00;101653.56;5021908;28;20076;-63
2023/09/08 06:59:27;;;;;;;25.15;15.07;;;;;;;19.21;100.00;101648.88;5011262;28;20064;-68
2023/09/08 07:01:53;;;;;;;19.65;15.60;;;;;;;19.23;100.00;101660.16;5024306;28;20091;-69
2023/09/08 07:04:20;;;;;;;26.17;15.65;;;;;;;19.30;100.00;101654.94;5016793;28;20049;-70
2023/09/08 07:06:47;;;;;;;22.50;16.42;;;;;;;19.34;100.00;101662.34;5024159;28;20132;-69
2023/09/08 07:09:13;;;;;;;21.25;12.80;;;;;;;19.40;100.00;101657.31;5022691;28;20053;-68
2023/09/08 07:11:40;;;;;;;23.50;16.63;;;;;;;19.46;100.00;101657.38;5014087;28;20128;-67
2023/09/08 07:14:06;;;;;;;19.40;12.63;;;;;;;19.53;100.00;101660.16;5018078;28;20742;-70
2023/09/08 07:16:33;;;;;;;19.88;15.55;;;;;;;19.59;100.00;101656.75;5018687;28;20674;-72
2023/09/08 07:19:00;;;;;;;18.70;13.52;;;;;;;19.64;100.00;101659.69;5022587;28;20128;-70
2023/09/08 07:21:27;;;;;;;22.35;16.08;;;;;;;19.70;100.00;101663.44;5019071;28;20049;-67
2023/09/08 07:23:53;;;;;;;23.15;16.60;;;;;;;19.72;100.00;101658.78;5021430;28;20621;-67
2023/09/08 07:26:20;;;;;;;16.80;13.13;;;;;;;19.82;100.00;101658.50;5019447;28;20116;-69
2023/09/08 07:28:46;;;;;;;20.42;13.77;;;;;;;19.90;100.00;101653.88;5030533;28;20106;-68
2023/09/08 07:31:13;;;;;;;20.15;14.35;;;;;;;19.95;100.00;101655.97;5026829;28;20049;-68
2023/09/08 07:33:40;;;;;;;20.45;13.32;;;;;;;20.01;100.00;101659.72;5019363;28;20064;-68
2023/09/08 07:36:08;;;;;;;21.85;14.70;;;;;;;20.07;100.00;101661.63;5018519;28;20175;-68
2023/09/08 07:38:34;;;;;;;18.88;14.25;;;;;;;20.17;100.00;101658.63;5016845;28;20057;-68
2023/09/08 07:41:02;;;;;;;25.37;14.47;;;;;;;20.21;100.00;101652.75;5016732;28;20124;-69
2023/09/08 07:43:29;;;;;;;18.00;13.10;;;;;;;20.28;100.00;101656.28;5022013;28;20286;-68
2023/09/08 07:45:55;;;;;;;16.30;12.77;;;;;;;20.32;100.00;101654.91;5012281;28;20132;-68
2023/09/08 07:48:22;;;;;;;16.98;12.52;;;;;;;20.38;100.00;101653.31;5006749;28;20053;-68
2023/09/08 07:50:48;;;;;;;22.52;13.10;;;;;;;20.43;100.00;101661.56;5012405;28;20049;-67
2023/09/08 07:53:15;;;;;;;18.13;11.77;;;;;;;20.53;100.00;101650.59;5014395;28;20041;-68
2023/09/08 07:55:41;;;;;;;15.57;12.25;;;;;;;20.60;100.00;101654.19;5014112;28;20410;-68
2023/09/08 07:58:08;;;;;;;17.58;12.35;;;;;;;20.65;100.00;101658.91;5020309;28;20107;-68
2023/09/08 08:00:34;;;;;;;14.50;9.63;;;;;;;20.70;100.00;101653.84;5024261;28;20413;-68
2023/09/08 08:03:01;;;;;;;15.15;11.35;;;;;;;20.79;100.00;101651.84;5014597;28;20056;-69
2023/09/08 08:05:27;;;;;;;16.00;10.15;;;;;;;20.86;100.00;101658.06;5022435;28;20367;-69
2023/09/08 08:07:54;;;;;;;18.88;11.82;;;;;;;20.92;100.00;101663.44;5011237;28;20053;-68
2023/09/08 08:10:20;;;;;;;18.52;12.70;;;;;;;20.96;100.00;101657.72;5017470;28;20139;-68
2023/09/08 08:12:47;;;;;;;16.55;10.57;;;;;;;21.02;100.00;101656.94;5022235;28;20470;-68
2023/09/08 08:15:13;;;;;;;16.88;11.77;;;;;;;21.10;100.00;101656.78;5016415;28;20341;-68
2023/09/08 08:17:40;;;;;;;17.55;11.32;;;;;;;21.20;100.00;101659.91;5022704;28;20056;-70
2023/09/08 08:20:09;;;;;;;16.23;11.10;;;;;;;21.28;100.00;101654.41;5015508;28;20060;-68
2023/09/08 08:22:37;;;;;;;15.88;11.32;;;;;;;21.45;100.00;101657.59;5018194;28;20060;-68
2023/09/08 08:25:04;;;;;;;16.38;11.60;;;;;;;21.60;100.00;101659.31;5014971;28;20131;-69
2023/09/08 08:27:31;;;;;;;15.73;12.00;;;;;;;21.75;100.00;101664.50;5022831;28;20140;-70
2023/09/08 08:30:00;;;;;;;12.23;8.32;;;;;;;21.95;100.00;101661.88;5019591;28;20053;-69
2023/09/08 08:32:27;;;;;;;13.65;11.07;;;;;;;22.19;100.00;101660.50;5017097;28;20407;-69
2023/09/08 08:34:54;;;;;;;17.95;11.88;;;;;;;22.42;100.00;101655.63;5017104;28;20146;-69
2023/09/08 08:37:20;;;;;;;14.82;11.48;;;;;;;22.62;100.00;101655.66;5012368;28;20581;-69
2023/09/08 08:39:47;;;;;;;17.40;11.50;;;;;;;22.85;100.00;101663.22;5021910;28;20049;-69
2023/09/08 08:42:14;;;;;;;13.10;9.88;;;;;;;23.03;100.00;101649.25;5018063;28;20132;-67
2023/09/08 08:44:41;;;;;;;14.77;11.48;;;;;;;23.24;100.00;101658.84;5021461;28;20553;-69
2023/09/08 08:47:09;;;;;;;19.90;11.88;;;;;;;23.42;100.00;101654.69;5020000;28;20076;-69
2023/09/08 08:49:36;;;;;;;;;;;;;;;23.64;100.00;101658.72;5014838;28;20076;-69
2023/09/08 08:52:07;;;;;;;20.10;11.10;;;;;;;23.82;100.00;101658.03;5016722;28;20401;-67
2023/09/08 08:54:38;;;;;;;15.18;10.95;;;;;;;24.01;97.06;101658.13;5017314;28;20057;-68
2023/09/08 08:57:06;;;;;;;17.70;11.15;;;;;;;24.19;97.83;101657.41;5023040;28;20086;-68
2023/09/08 08:59:33;;;;;;;;;;;;;;;24.38;96.76;101660.97;5016653;28;20064;-67
2023/09/08 09:02:01;;;;;;;13.57;10.50;;;;;;;24.56;95.96;101657.56;5019810;28;19952;-68
2023/09/08 09:04:28;;;;;;;16.27;12.02;;;;;;;24.70;91.73;101659.09;5019552;28;20744;-68
2023/09/08 09:06:55;;;;;;;15.90;10.60;;;;;;;24.89;93.05;101657.25;5013929;28;20068;-67
2023/09/08 09:09:23;;;;;;;15.25;10.95;;;;;;;25.04;92.47;101660.41;5020637;28;20057;-67
2023/09/08 09:11:50;;;;;;;14.23;10.95;;;;;;;25.20;92.23;101650.94;5014667;28;20053;-67
2023/09/08 09:14:18;;;;;;;15.00;10.93;;;;;;;25.33;89.85;101652.69;5022399;28;20103;-67
2023/09/08 09:16:47;;;;;;;16.88;11.95;;;;;;;25.46;88.81;101646.31;5006597;28;20050;-68
2023/09/08 09:19:25;;;;;;;15.65;10.85;;;;;;;25.63;87.79;101647.34;5019428;28;20141;-68
2023/09/08 09:21:54;;;;;;;14.65;11.00;;;;;;;25.79;87.12;101658.50;5021425;28;20107;-67
2023/09/08 09:24:36;;;;;;;19.00;11.88;;;;;;;25.96;84.97;101654.16;5015450;28;20107;-67
2023/09/08 09:27:05;;;;;;;15.25;9.82;;;;;;;26.06;84.53;101650.94;5020254;28;20069;-69
2023/09/08 09:29:44;;;;;;;12.38;10.20;;;;;;;26.28;79.48;101655.78;5011050;28;20053;-68
2023/09/08 09:32:10;;;;;;;15.98;11.02;;;;;;;26.48;79.72;101652.75;5016077;28;20800;-68
2023/09/08 09:34:47;;;;;;;14.48;10.73;;;;;;;26.62;79.26;101649.63;5014687;28;20041;-68
2023/09/08 09:37:14;;;;;;;16.52;10.38;;;;;;;26.80;80.66;101651.38;5021359;28;20225;-68
2023/09/08 09:39:41;;;;;;;12.60;10.95;;;;;;;26.90;74.67;101655.38;5017959;28;20060;-68
2023/09/08 09:42:07;;;;;;;13.40;10.25;;;;;;;27.05;75.80;101653.03;5014594;28;20049;-68
2023/09/08 09:44:34;;;;;;;14.35;10.73;;;;;;;27.23;77.17;101647.47;5014150;28;20053;-68
2023/09/08 09:47:01;;;;;;;13.95;10.52;;;;;;;27.45;75.73;101646.84;5003525;28;20195;-68
2023/09/08 09:49:31;;;;;;;14.73;10.35;;;;;;;27.61;73.94;101643.38;5020242;28;20132;-68
2023/09/08 09:51:59;;;;;;;15.30;10.60;;;;;;;27.55;70.91;101652.44;5014449;28;20103;-68
2023/09/08 09:54:25;;;;;;;15.40;10.98;;;;;;;27.72;73.10;101657.88;5021308;28;20045;-68
2023/09/08 09:56:52;;;;;;;18.17;11.57;;;;;;;27.87;71.57;101657.31;5019447;28;20056;-67
2023/09/08 09:59:19;;;;;;;18.58;10.73;;;;;;;28.04;71.67;101654.69;5007171;28;20050;-68
2023/09/08 10:01:46;;;;;;;13.75;10.38;;;;;;;28.14;70.23;101645.97;5020755;28;20138;-68
2023/09/08 10:04:15;;;;;;;16.88;9.40;;;;;;;28.34;71.53;101648.16;5012291;28;20463;-68
2023/09/08 10:06:43;;;;;;;11.25;9.75;;;;;;;28.58;70.37;101644.28;5020348;28;20632;-68
2023/09/08 10:09:13;;;;;;;16.70;9.63;;;;;;;28.69;67.80;101652.53;5010633;28;20514;-68
2023/09/08 10:11:53;;;;;;;14.10;10.07;;;;;;;28.85;67.70;101640.03;5012328;28;20086;-68
2023/09/08 10:14:21;;;;;;;12.32;9.90;;;;;;;29.04;65.99;101645.97;5016469;28;20331;-68
2023/09/08 10:16:52;;;;;;;11.80;9.50;;;;;;;29.25;65.88;101639.78;5014894;28;20045;-68
2023/09/08 10:19:20;;;;;;;12.93;8.32;;;;;;;29.43;66.29;101640.53;5021364;28;20053;-68
2023/09/08 10:21:48;;;;;;;10.32;8.20;;;;;;;29.67;66.06;101641.06;5015934;28;20049;-69
2023/09/08 10:24:22;;;;;;;14.98;8.90;;;;;;;29.89;65.23;101633.75;5023057;28;20042;-68
2023/09/08 10:27:07;;;;;;;15.77;9.82;;;;;;;30.09;64.74;101643.91;5009683;28;20046;-67
2023/09/08 10:29:34;;;;;;;17.77;10.43;;;;;;;30.09;62.77;101634.97;5020698;28;20469;-68
2023/09/08 10:32:02;;;;;;;15.27;9.73;;;;;;;30.26;65.90;101632.94;5020013;28;20053;-68
2023/09/08 10:34:32;;;;;;;12.73;8.85;;;;;;;30.40;62.16;101627.94;5014955;28;20127;-68
2023/09/08 10:36:58;;;;;;;12.20;7.72;;;;;;;30.60;65.03;101631.84;5021451;28;20108;-68
2023/09/08 10:39:37;;;;;;;12.98;9.25;;;;;;;30.75;60.57;101629.22;5009042;28;20057;-68
2023/09/08 10:42:19;;;;;;;10.63;8.82;;;;;;;30.98;58.77;101632.63;5018479;28;20129;-68
2023/09/08 10:44:51;;;;;;;14.15;8.77;;;;;;;31.20;58.93;101627.03;5014464;28;20053;-68
2023/09/08 10:47:19;;;;;;;13.23;8.25;;;;;;;31.47;58.87;101624.97;5020808;28;20081;-68
2023/09/08 10:49:46;;;;;;;11.00;8.73;;;;;;;31.58;56.56;101619.56;5016897;28;20419;-69
2023/09/08 10:52:13;;;;;;;10.00;8.10;;;;;;;31.77;57.26;101619.84;5022077;28;20057;-68
2023/09/08 10:54:44;;;;;;;10.40;6.88;;;;;;;32.03;58.89;101624.25;5017212;28;20466;-69
2023/09/08 10:57:16;;;;;;;9.85;7.72;;;;;;;32.18;56.79;101626.13;5009648;28;20120;-69
2023/09/08 11:00:04;;;;;;;13.02;8.23;;;;;;;32.33;56.34;101624.50;5022811;28;20049;-68
2023/09/08 11:02:35;;;;;;;8.55;7.15;;;;;;;32.48;56.53;101622.56;5013990;28;20052;-68
2023/09/08 11:05:04;;;;;;;8.95;7.18;;;;;;;32.60;54.53;101621.47;5018095;28;20167;-69
2023/09/08 11:07:32;;;;;;;12.38;7.90;;;;;;;32.73;54.94;101620.09;5010396;28;20758;-69
2023/09/08 11:10:02;;;;;;;9.15;7.30;;;;;;;32.87;54.08;101619.22;5015351;28;21504;-68